Aviation Digital Data Service (ADDS)

Output produced by METARs form (0411 UTC 28 January 2015)
found at http://www.aviationweather.gov/adds/metars/
 
KSPI 272338Z 2800/2824 03005KT P6SM BKN015 
     FM280600 10005KT P6SM SCT015 
     FM281300 15012KT P6SM SCT250 
     FM281600 15015G25KT P6SM SCT250